Flight Track Log - Related Links

Times and Time Zones

All times are in EDT time to prevent confusion due to time zone crossing. See the ASQ6159 flight status page for this flight to view local times or setup timezone preferences in your user account.

Time Position Orientation Groundspeed Altitude Reporting Facility
EDT Latitude Longitude Course Direction KTS MPH feet Rate Location/Type
Tue 09:13:25 PM 42.0167 -87.8500 90° East 181 208 2,900  Level Chicago TRACON
Tue 09:14:19 PM 42.0167 -87.7667 90° East 222 255 4,400 1,789 Climbing Chicago TRACON
Tue 09:15:19 PM 42.0167 -87.6667 90° East 266 306 6,300 2,073 Climbing Chicago TRACON
Tue 09:17:04 PM 41.9953 -87.5028 100° East 272 313 10,100 1,940 Climbing Chicago Center
Tue 09:18:06 PM 41.9831 -87.3986 99° East 279 321 11,700 1,610 Climbing Chicago Center
Tue 09:19:07 PM 41.9711 -87.2864 98° East 295 339 13,400 1,366 Climbing Chicago Center
Tue 09:20:09 PM 41.9581 -87.1692 98° East 310 357 14,500 1,016 Climbing Chicago Center
Tue 09:21:11 PM 41.9442 -87.0425 98° East 334 384 15,500 968 Climbing Chicago Center
Tue 09:22:13 PM 41.9461 -86.9089 89° East 354 407 16,500 1,065 Climbing Chicago Center
Tue 09:23:15 PM 41.9486 -86.7461 89° East 363 418 17,700 976 Climbing Chicago Center
Tue 09:24:16 PM 41.9497 -86.6272 89° East 373 429 18,500 1,024 Climbing Chicago Center
Tue 09:25:18 PM 41.9519 -86.4564 89° East 379 436 19,800 1,113 Climbing Chicago Center
Tue 09:26:20 PM 41.9533 -86.3108 89° East 387 445 20,800 976 Climbing Chicago Center
Tue 09:27:21 PM 41.9514 -86.1653 91° East 390 449 21,800 976 Climbing Chicago Center
Tue 09:28:23 PM 41.9378 -86.0194 97° East 393 452 22,800 1,016 Climbing Chicago Center
Tue 09:29:25 PM 41.9233 -85.8731 98° East 394 453 23,900 1,024 Climbing Chicago Center
Tue 09:30:26 PM 41.9103 -85.7256 97° East 395 455 24,900 537 Climbing Chicago Center
Tue 09:31:28 PM 41.8961 -85.5764 97° East 399 459 25,000 48 Climbing Chicago Center
Tue 09:32:30 PM 41.8808 -85.4164 97° East 420 483 25,000  Level Chicago Center
Tue 09:33:31 PM 41.8639 -85.2536 98° East 433 498 25,000  Level Chicago Center
Tue 09:34:33 PM 41.8436 -85.0556 98° East 444 511 25,000  Level Chicago Center
Tue 09:35:34 PM 41.8272 -84.8889 97° East 449 517 25,000  Level Chicago Center
Tue 09:36:36 PM 41.8097 -84.7222 98° East 451 519 25,000 98 Level Chicago Center
Tue 09:37:37 PM 41.7919 -84.5583 98° East 445 512 25,200 732 Climbing Chicago Center
Tue 09:38:39 PM 41.7756 -84.4003 98° East 431 496 26,500 1,125 Climbing Chicago Center
Tue 09:39:45 PM 41.7767 -84.2394 89° East 422 486 27,600 1,000 Climbing Cleveland Center
Tue 09:40:45 PM 41.7728 -84.0914 92° East 406 467 28,600 1,000 Climbing Cleveland Center
Tue 09:41:45 PM 41.7731 -83.9467 90° East 395 455 29,600 700 Climbing Cleveland Center
Tue 09:42:45 PM 41.7708 -83.8044 91° East 389 448 30,000 200 Climbing Cleveland Center
Tue 09:43:45 PM 41.7686 -83.6542 91° East 389 448 30,000  Level Cleveland Center
Tue 09:44:45 PM 41.7644 -83.4981 92° East 399 459 30,000  Level Cleveland Center
Tue 09:45:45 PM 41.7494 -83.3414 97° East 412 474 30,000  Level Cleveland Center
Tue 09:46:45 PM 41.7325 -83.1847 98° East 417 480 30,000  Level Cleveland Center
Tue 09:47:45 PM 41.7169 -83.0283 98° East 417 480 30,000  Level Cleveland Center
Tue 09:48:45 PM 41.7036 -82.8750 97° East 417 480 30,000  Level Cleveland Center
Tue 09:49:45 PM 41.6858 -82.7186 99° East 417 480 30,000  Level Cleveland Center
Tue 09:50:45 PM 41.6697 -82.5650 98° East 417 480 30,000  Level Cleveland Center
Tue 09:51:45 PM 41.6536 -82.4117 98° East 417 480 30,000  Level Cleveland Center
Tue 09:52:45 PM 41.6372 -82.2500 98° East 424 488 30,000  Level Cleveland Center
Tue 09:53:45 PM 41.6206 -82.0997 98° East 424 488 30,000  Level Cleveland Center
Tue 09:54:45 PM 41.6058 -81.9439 97° East 424 488 30,000  Level Cleveland Center
Tue 09:55:45 PM 41.5867 -81.7908 99° East 417 480 30,000  Level Cleveland Center
Tue 09:56:45 PM 41.5697 -81.6239 98° East 417 480 30,000  Level Cleveland Center
Tue 09:57:45 PM 41.5500 -81.4739 100° East 412 474 30,000  Level Cleveland Center
Tue 09:58:45 PM 41.5344 -81.3183 98° East 412 474 30,000  Level Cleveland Center
Tue 09:59:45 PM 41.5167 -81.1683 99° East 412 474 30,000  Level Cleveland Center
Tue 10:00:45 PM 41.5028 -81.0128 97° East 412 474 30,000  Level Cleveland Center
Tue 10:01:45 PM 41.4886 -80.8603 97° East 412 474 30,000  Level Cleveland Center
Tue 10:02:45 PM 41.4764 -80.7244 97° East 407 468 30,000  Level Cleveland Center
Tue 10:03:45 PM 41.4639 -80.5719 96° East 412 474 30,000  Level Cleveland Center
Tue 10:04:45 PM 41.4492 -80.4197 97° East 412 474 30,000  Level Cleveland Center
Tue 10:05:45 PM 41.4364 -80.2536 96° East 407 468 30,000  Level Cleveland Center
Tue 10:06:45 PM 41.4211 -80.1014 98° East 407 468 30,000  Level Cleveland Center
Tue 10:07:45 PM 41.4058 -79.9686 99° East 407 468 30,000  Level Cleveland Center
Tue 10:08:45 PM 41.3906 -79.8164 98° East 407 468 30,000  Level Cleveland Center
Tue 10:09:45 PM 41.3769 -79.6644 97° East 407 468 30,000 -100 Level Cleveland Center
Tue 10:10:45 PM 41.3608 -79.4958 97° East 407 468 29,800 -600 Descending Cleveland Center
Tue 10:11:45 PM 41.3447 -79.3467 98° East 407 468 28,800 -1,150 Descending Cleveland Center
Tue 10:12:45 PM 41.3306 -79.2144 98° East 407 468 27,500 -1,400 Descending Cleveland Center
Tue 10:13:45 PM 41.3142 -79.0572 98° East 413 475 26,000 -1,250 Descending Cleveland Center
Tue 10:14:45 PM 41.2992 -78.8861 97° East 418 481 25,000 -500 Descending Cleveland Center
Tue 10:15:45 PM 41.2800 -78.7292 99° East 424 488 25,000  Level Cleveland Center
Tue 10:16:45 PM 41.2650 -78.5747 97° East 424 488 25,000  Level Cleveland Center
Tue 10:17:45 PM 41.2453 -78.4181 99° East 424 488 25,000  Level Cleveland Center
Tue 10:18:30 PM 41.2319 -78.3089 99° East 420 483 25,000  Level New York Center
Tue 10:19:28 PM 41.2150 -78.1494 98° East 433 498 25,000  Level New York Center
Tue 10:20:29 PM 41.1956 -77.9931 99° East 433 498 25,000 -99 Level New York Center
Tue 10:21:29 PM 41.1775 -77.8394 99° East 433 498 24,800 -645 Descending New York Center
Tue 10:22:30 PM 41.1533 -77.6853 102° East 433 498 23,700 -1,210 Descending New York Center
Tue 10:23:28 PM 41.1264 -77.5364 103° East 428 493 22,400 -1,300 Descending New York Center
Tue 10:24:30 PM 41.0997 -77.3850 103° East 423 487 21,100 -1,240 Descending New York Center
Tue 10:25:29 PM 41.0700 -77.2417 105° East 417 480 19,900 -1,261 Descending New York Center
Tue 10:26:29 PM 41.0444 -77.0989 103° East 411 473 18,600 -1,240 Descending New York Center
Tue 10:27:30 PM 41.0181 -76.9644 105° East 393 452 17,400 -1,180 Descending New York Center
Tue 10:28:31 PM 40.9958 -76.8331 103° East 376 433 16,200 -1,261 Descending New York Center
Tue 10:29:29 PM 40.9692 -76.6989 105° East 371 427 14,900 -1,311 Descending New York Center
Tue 10:30:30 PM 40.9444 -76.5703 104° East 364 419 13,600 -1,250 Descending New York Center
Tue 10:31:29 PM 40.9211 -76.4475 104° East 359 413 12,400 -1,250 Descending New York Center
Tue 10:32:30 PM 40.8975 -76.3275 105° East 346 398 11,100 -1,200 Descending New York Center
Tue 10:33:29 PM 40.8794 -76.2244 103° East 314 361 10,000 -1,059 Descending New York Center
Tue 10:34:29 PM 40.8608 -76.1297 105° East 274 315 9,000 -545 Descending New York Center
Tue 10:35:30 PM 40.8422 -76.0350 105° East 267 307 8,900 -344 Descending New York Center
Tue 10:36:31 PM 40.8186 -75.9561 112° Southeast 267 307 8,300 -807 Descending New York Center
Tue 10:37:29 PM 40.7867 -75.8744 117° Southeast 260 299 7,300 -1,322 Descending New York Center
Tue 10:38:29 PM 40.7508 -75.7894 119° Southeast 250 288 5,700 -1,388 Descending New York Center
Tue 10:39:30 PM 40.7208 -75.7106 117° Southeast 245 282 4,500 -1,180 Descending New York Center
Tue 10:40:31 PM 40.6814 -75.6558 134° Southeast 234 269 3,300 -700 Descending New York Center
Tue 10:41:30 PM 40.6289 -75.6164 150° Southeast 228 262 3,100 -300 Descending New York Center
Tue 10:42:31 PM 40.5889 -75.5753 142° Southeast 189 217 2,700 -605 Descending New York Center
Tue 10:43:29 PM 40.5969 -75.5267 78° East 133 153 1,900 3,203 Descending New York Center
Tue 10:44:29 PM 40.6169 -75.4981 47° Northeast 105 121 9,000 3,550 Climbing New York Center
Tue 10:45:29 PM 40.6083 -75.4508 103° East 105 121 9,000  Level New York Center
Tue 10:46:28 PM 40.6100 -75.4100 87° East 105 121 9,000  Level New York Center
Tue 10:47:29 PM 40.6117 -75.3692 87° East 105 121 9,000  Level New York Center
Tue 10:48:31 PM 40.6128 -75.3364 87° East 105 121 9,000  Level New York Center

Login

Don't have an account? Register now (free) for customized features, flight alerts, and more!